Goodyear, AZ

5:55 AM MST on September 19, 2014 (GMT -0700)
I-10 & Estrella Pkwy. | Change Station
CLOSE
Current Station
Personal Weather Station
Location: Goodyear, AZ
Elevation: 1004 ft
Nearby Weather Stations

Elev 1004 ft 33.46 °N, 112.40 °W | Updated 4 minutes ago

Scattered Clouds
Scattered Clouds
78.3 °F
Feels Like 76 °F
N
0.0
Wind Variable Wind from WSW
Gusts 0.0 mph

Today
High -- | Low -- °F
--% Chance of Precip.
Yesterday
High -- | Low -- °F
Precip. -- in
6:15 AM 6:30 PM
Waning Crescent, 19% visible
Pressure 29.80 in
Visibility 10.0 miles
Clouds Scattered Clouds 7500 ft
Scattered Clouds 14000 ft
Heat Index 76 °F
Dew Point Not available.
Humidity Not available.
Rainfall 0.00 in
Snow Depth 0 in , 0 in , 0 in
UV 0.0 out of 12
Pollen 6.30 out of 12
PM2.5 Good
Flu Activity Not available.
METAR KGYR 191247Z VRB04KT 10SM SCT075 SCT140 27/21 A2980 RMK FIRST DASI CORRECTION: -,01

More Conditions Fewer Conditions

Pressure 29.80 in
Visibility 10.0 miles
Clouds Scattered Clouds 7500 ft
Scattered Clouds 14000 ft
Heat Index 76 °F
Dew Point Not available.
Humidity Not available.
Rainfall 0.00 in
Snow Depth 0 in , 0 in , 0 in
UV 0.0 out of 12
Pollen 6.30 out of 12
PM2.5 Good
Flu Activity Not available.
METAR KGYR 191247Z VRB04KT 10SM SCT075 SCT140 27/21 A2980 RMK FIRST DASI CORRECTION: -,01

More Conditions Fewer Conditions

10-Day Weather Forecast

Almanac

Astronomy

Sep. 19, 2014 Rise Set
Actual Time 6:15 AM MST 6:30 PM MST
Civil Twilight 5:50 AM MST 6:55 PM MST
Nautical Twilight 5:21 AM MST 7:24 PM MST
Astronomical Twilight 4:52 AM MST 7:53 PM MST
Moon 2:14 AM MST 3:52 PM MST
Length of Visible Light 13h 04m
Length of Day
12h 14m
Tomorrow will be 2m 3s shorter.
Waning Crescent, 19% of the Moon is Illuminated
Today
Waning Crescent
Sep 24
New
Oct 1
First Quarter
Oct 8
Full
Oct 15
Last Quarter

Today's Extremes

State Highs State Lows

Community

WunderPhotos

Upload Photos

1,754,602 photos uploaded!

Nearby

Air Quality

  Air Quality AQ Index Pollutant
Yesterday Good
OZONE
Yesterday Good
PM10
Current Good
PM2.5
Friday Good
OZONE
Friday Good
PM10
Friday Good
CO
Saturday Good
OZONE
Saturday Good
PM10
Saturday Good
CO

Snow Depth

Station Depth Elevation
Wildcat 0 in 7850 ft
Promontory 0 in 7930 ft
Maverick Fork 0 in 9200 ft
Baker Butte 0 in 7300 ft
White Horse Lake 0 in 7180 ft

Earthquake Activity

City Distance Mag. Time & Date
No recent earthquake activity has been reported nearby.
Minimum magnitude displayed is 2.5.

Coastal Water Temperatures

Place Temperature
No Stations Reporting

Nearby Weather Stations